sensor_id;sensor_type;location;lat;lon;timestamp;P1;durP1;ratioP1;P2;durP2;ratioP2
31716;SDS011;18301;51.076;17.046;2023-02-24T00:04:46;53.08;;;28.33;;
31716;SDS011;18301;51.076;17.046;2023-02-24T00:09:52;52.15;;;26.75;;
31716;SDS011;18301;51.076;17.046;2023-02-24T00:14:53;49.97;;;27.60;;
31716;SDS011;18301;51.076;17.046;2023-02-24T00:19:55;51.15;;;27.30;;
31716;SDS011;18301;51.076;17.046;2023-02-24T00:24:57;53.17;;;28.30;;
31716;SDS011;18301;51.076;17.046;2023-02-24T00:30:03;50.70;;;27.67;;
31716;SDS011;18301;51.076;17.046;2023-02-24T00:35:06;55.08;;;27.27;;
31716;SDS011;18301;51.076;17.046;2023-02-24T00:40:09;51.03;;;27.33;;
31716;SDS011;18301;51.076;17.046;2023-02-24T00:45:11;53.63;;;28.80;;
31716;SDS011;18301;51.076;17.046;2023-02-24T00:50:12;49.85;;;28.17;;
31716;SDS011;18301;51.076;17.046;2023-02-24T00:55:14;51.03;;;27.88;;
31716;SDS011;18301;51.076;17.046;2023-02-24T01:00:15;51.45;;;27.95;;
31716;SDS011;18301;51.076;17.046;2023-02-24T01:05:17;57.10;;;29.25;;
31716;SDS011;18301;51.076;17.046;2023-02-24T01:10:20;54.08;;;27.65;;
31716;SDS011;18301;51.076;17.046;2023-02-24T01:15:23;59.97;;;28.00;;
31716;SDS011;18301;51.076;17.046;2023-02-24T01:20:25;52.83;;;26.63;;
31716;SDS011;18301;51.076;17.046;2023-02-24T01:25:30;55.28;;;27.05;;
31716;SDS011;18301;51.076;17.046;2023-02-24T01:30:31;57.15;;;27.73;;
31716;SDS011;18301;51.076;17.046;2023-02-24T01:35:34;54.28;;;26.42;;
31716;SDS011;18301;51.076;17.046;2023-02-24T01:40:35;54.45;;;27.02;;
31716;SDS011;18301;51.076;17.046;2023-02-24T01:45:37;53.75;;;26.45;;
31716;SDS011;18301;51.076;17.046;2023-02-24T01:50:42;55.30;;;26.60;;
31716;SDS011;18301;51.076;17.046;2023-02-24T01:55:46;59.40;;;27.73;;
31716;SDS011;18301;51.076;17.046;2023-02-24T02:00:50;52.15;;;26.45;;
31716;SDS011;18301;51.076;17.046;2023-02-24T02:05:53;55.00;;;27.63;;
31716;SDS011;18301;51.076;17.046;2023-02-24T02:11:01;51.30;;;27.23;;
31716;SDS011;18301;51.076;17.046;2023-02-24T02:22:40;53.35;;;26.92;;
31716;SDS011;18301;51.076;17.046;2023-02-24T02:38:23;52.92;;;26.70;;
31716;SDS011;18301;51.076;17.046;2023-02-24T02:48:51;54.20;;;26.17;;
31716;SDS011;18301;51.076;17.046;2023-02-24T02:54:05;59.72;;;29.20;;
31716;SDS011;18301;51.076;17.046;2023-02-24T02:59:16;49.22;;;25.30;;
31716;SDS011;18301;51.076;17.046;2023-02-24T03:04:22;54.70;;;26.05;;
31716;SDS011;18301;51.076;17.046;2023-02-24T03:09:31;54.05;;;26.23;;
31716;SDS011;18301;51.076;17.046;2023-02-24T03:14:37;56.15;;;26.95;;
31716;SDS011;18301;51.076;17.046;2023-02-24T03:19:43;51.58;;;25.40;;
31716;SDS011;18301;51.076;17.046;2023-02-24T03:24:47;49.45;;;25.60;;
31716;SDS011;18301;51.076;17.046;2023-02-24T03:29:49;52.55;;;27.45;;
31716;SDS011;18301;51.076;17.046;2023-02-24T03:34:57;51.75;;;26.38;;
31716;SDS011;18301;51.076;17.046;2023-02-24T03:40:08;49.55;;;25.02;;
31716;SDS011;18301;51.076;17.046;2023-02-24T03:45:15;54.50;;;26.58;;
31716;SDS011;18301;51.076;17.046;2023-02-24T03:50:18;53.83;;;26.80;;
31716;SDS011;18301;51.076;17.046;2023-02-24T04:00:36;49.13;;;26.08;;
31716;SDS011;18301;51.076;17.046;2023-02-24T04:06:05;51.83;;;26.92;;
31716;SDS011;18301;51.076;17.046;2023-02-24T04:11:33;50.53;;;25.90;;
31716;SDS011;18301;51.076;17.046;2023-02-24T04:16:42;50.22;;;24.67;;
31716;SDS011;18301;51.076;17.046;2023-02-24T04:21:51;48.65;;;25.02;;
31716;SDS011;18301;51.076;17.046;2023-02-24T04:26:55;47.17;;;24.25;;
31716;SDS011;18301;51.076;17.046;2023-02-24T04:32:02;47.58;;;23.95;;
31716;SDS011;18301;51.076;17.046;2023-02-24T04:37:07;45.92;;;24.17;;
31716;SDS011;18301;51.076;17.046;2023-02-24T04:42:09;46.92;;;24.85;;
31716;SDS011;18301;51.076;17.046;2023-02-24T04:47:11;47.53;;;24.75;;
31716;SDS011;18301;51.076;17.046;2023-02-24T04:52:12;47.17;;;24.38;;
31716;SDS011;18301;51.076;17.046;2023-02-24T04:57:16;49.97;;;25.80;;
31716;SDS011;18301;51.076;17.046;2023-02-24T05:02:17;44.13;;;23.65;;
31716;SDS011;18301;51.076;17.046;2023-02-24T05:07:20;49.17;;;24.50;;
31716;SDS011;18301;51.076;17.046;2023-02-24T05:12:22;41.63;;;22.05;;
31716;SDS011;18301;51.076;17.046;2023-02-24T05:17:24;42.15;;;22.20;;
31716;SDS011;18301;51.076;17.046;2023-02-24T05:22:25;48.88;;;24.02;;
31716;SDS011;18301;51.076;17.046;2023-02-24T05:27:29;51.38;;;24.67;;
31716;SDS011;18301;51.076;17.046;2023-02-24T05:32:30;45.33;;;23.33;;
31716;SDS011;18301;51.076;17.046;2023-02-24T05:37:38;43.85;;;23.48;;
31716;SDS011;18301;51.076;17.046;2023-02-24T05:42:42;47.92;;;23.77;;
31716;SDS011;18301;51.076;17.046;2023-02-24T05:47:45;45.75;;;23.63;;
31716;SDS011;18301;51.076;17.046;2023-02-24T05:52:47;42.63;;;22.67;;
31716;SDS011;18301;51.076;17.046;2023-02-24T05:57:48;41.17;;;23.13;;
31716;SDS011;18301;51.076;17.046;2023-02-24T06:02:51;42.25;;;22.40;;
31716;SDS011;18301;51.076;17.046;2023-02-24T06:07:56;40.67;;;22.65;;
31716;SDS011;18301;51.076;17.046;2023-02-24T06:13:05;43.20;;;23.25;;
31716;SDS011;18301;51.076;17.046;2023-02-24T06:18:07;38.60;;;20.75;;
31716;SDS011;18301;51.076;17.046;2023-02-24T06:23:11;38.70;;;20.67;;
31716;SDS011;18301;51.076;17.046;2023-02-24T06:28:13;34.65;;;19.75;;
31716;SDS011;18301;51.076;17.046;2023-02-24T06:33:14;23.50;;;12.52;;
31716;SDS011;18301;51.076;17.046;2023-02-24T06:38:16;21.30;;;12.02;;
31716;SDS011;18301;51.076;17.046;2023-02-24T06:43:17;21.55;;;11.82;;
31716;SDS011;18301;51.076;17.046;2023-02-24T06:48:19;22.80;;;12.73;;
31716;SDS011;18301;51.076;17.046;2023-02-24T06:53:23;26.90;;;13.25;;
31716;SDS011;18301;51.076;17.046;2023-02-24T06:58:26;22.85;;;12.52;;
31716;SDS011;18301;51.076;17.046;2023-02-24T07:03:28;26.10;;;14.38;;
31716;SDS011;18301;51.076;17.046;2023-02-24T07:08:47;24.15;;;13.65;;
31716;SDS011;18301;51.076;17.046;2023-02-24T07:13:49;27.25;;;14.73;;
31716;SDS011;18301;51.076;17.046;2023-02-24T07:18:55;27.02;;;14.10;;
31716;SDS011;18301;51.076;17.046;2023-02-24T07:23:58;27.35;;;13.68;;
31716;SDS011;18301;51.076;17.046;2023-02-24T07:28:59;28.38;;;14.48;;
31716;SDS011;18301;51.076;17.046;2023-02-24T07:34:04;25.83;;;13.32;;
31716;SDS011;18301;51.076;17.046;2023-02-24T07:39:06;25.30;;;13.23;;
31716;SDS011;18301;51.076;17.046;2023-02-24T07:44:08;28.15;;;14.27;;
31716;SDS011;18301;51.076;17.046;2023-02-24T07:49:14;24.55;;;11.93;;
31716;SDS011;18301;51.076;17.046;2023-02-24T07:54:20;29.48;;;13.65;;
31716;SDS011;18301;51.076;17.046;2023-02-24T07:59:27;26.77;;;12.82;;
31716;SDS011;18301;51.076;17.046;2023-02-24T08:04:30;25.23;;;11.55;;
31716;SDS011;18301;51.076;17.046;2023-02-24T08:09:33;27.38;;;14.15;;
31716;SDS011;18301;51.076;17.046;2023-02-24T08:14:48;26.55;;;13.13;;
31716;SDS011;18301;51.076;17.046;2023-02-24T08:19:52;26.42;;;13.80;;
31716;SDS011;18301;51.076;17.046;2023-02-24T08:25:13;27.15;;;13.88;;
31716;SDS011;18301;51.076;17.046;2023-02-24T08:30:19;26.25;;;13.65;;
31716;SDS011;18301;51.076;17.046;2023-02-24T08:35:28;26.77;;;13.77;;
31716;SDS011;18301;51.076;17.046;2023-02-24T08:40:36;26.80;;;12.98;;
31716;SDS011;18301;51.076;17.046;2023-02-24T08:45:54;24.20;;;12.25;;
31716;SDS011;18301;51.076;17.046;2023-02-24T08:51:00;25.60;;;12.25;;
31716;SDS011;18301;51.076;17.046;2023-02-24T08:56:03;23.08;;;11.73;;
31716;SDS011;18301;51.076;17.046;2023-02-24T09:01:14;24.98;;;11.15;;
31716;SDS011;18301;51.076;17.046;2023-02-24T09:06:21;19.95;;;10.38;;
31716;SDS011;18301;51.076;17.046;2023-02-24T09:11:28;20.90;;;10.30;;
31716;SDS011;18301;51.076;17.046;2023-02-24T09:16:29;22.25;;;10.10;;
31716;SDS011;18301;51.076;17.046;2023-02-24T09:21:31;16.52;;;8.80;;
31716;SDS011;18301;51.076;17.046;2023-02-24T09:27:13;18.90;;;9.68;;
31716;SDS011;18301;51.076;17.046;2023-02-24T09:32:17;17.98;;;9.88;;
31716;SDS011;18301;51.076;17.046;2023-02-24T09:37:18;14.40;;;7.97;;
31716;SDS011;18301;51.076;17.046;2023-02-24T09:42:27;17.75;;;9.35;;
31716;SDS011;18301;51.076;17.046;2023-02-24T09:52:58;16.02;;;7.95;;
31716;SDS011;18301;51.076;17.046;2023-02-24T09:58:18;18.08;;;9.43;;
31716;SDS011;18301;51.076;17.046;2023-02-24T10:08:53;20.08;;;8.55;;
31716;SDS011;18301;51.076;17.046;2023-02-24T10:14:04;16.88;;;7.97;;
31716;SDS011;18301;51.076;17.046;2023-02-24T10:19:22;14.20;;;7.93;;
31716;SDS011;18301;51.076;17.046;2023-02-24T10:24:36;15.23;;;8.25;;
31716;SDS011;18301;51.076;17.046;2023-02-24T10:30:29;15.15;;;7.97;;
31716;SDS011;18301;51.076;17.046;2023-02-24T10:35:20;17.27;;;8.70;;
31716;SDS011;18301;51.076;17.046;2023-02-24T10:40:26;13.85;;;6.47;;
31716;SDS011;18301;51.076;17.046;2023-02-24T10:45:45;11.45;;;5.85;;
31716;SDS011;18301;51.076;17.046;2023-02-24T10:50:48;10.93;;;5.50;;
31716;SDS011;18301;51.076;17.046;2023-02-24T10:55:57;12.40;;;5.40;;
31716;SDS011;18301;51.076;17.046;2023-02-24T11:01:24;9.55;;;4.90;;
31716;SDS011;18301;51.076;17.046;2023-02-24T11:06:46;9.30;;;4.10;;
31716;SDS011;18301;51.076;17.046;2023-02-24T11:17:19;9.27;;;5.15;;
31716;SDS011;18301;51.076;17.046;2023-02-24T11:22:30;8.43;;;4.72;;
31716;SDS011;18301;51.076;17.046;2023-02-24T11:27:34;10.65;;;6.07;;
31716;SDS011;18301;51.076;17.046;2023-02-24T11:32:58;9.18;;;4.57;;
31716;SDS011;18301;51.076;17.046;2023-02-24T11:43:48;12.32;;;5.28;;
31716;SDS011;18301;51.076;17.046;2023-02-24T11:48:57;9.57;;;4.90;;
31716;SDS011;18301;51.076;17.046;2023-02-24T11:54:07;9.63;;;5.07;;
31716;SDS011;18301;51.076;17.046;2023-02-24T11:59:21;11.80;;;6.65;;
31716;SDS011;18301;51.076;17.046;2023-02-24T12:15:27;10.95;;;6.82;;
31716;SDS011;18301;51.076;17.046;2023-02-24T12:20:33;16.42;;;7.20;;
31716;SDS011;18301;51.076;17.046;2023-02-24T12:25:47;25.60;;;9.40;;
31716;SDS011;18301;51.076;17.046;2023-02-24T12:41:32;26.05;;;13.15;;
31716;SDS011;18301;51.076;17.046;2023-02-24T12:46:48;22.80;;;10.35;;
31716;SDS011;18301;51.076;17.046;2023-02-24T12:52:01;12.70;;;6.70;;
31716;SDS011;18301;51.076;17.046;2023-02-24T12:57:27;16.45;;;6.15;;
31716;SDS011;18301;51.076;17.046;2023-02-24T13:02:58;10.63;;;5.22;;
31716;SDS011;18301;51.076;17.046;2023-02-24T13:18:40;9.10;;;3.95;;
31716;SDS011;18301;51.076;17.046;2023-02-24T13:23:50;9.13;;;4.38;;
31716;SDS011;18301;51.076;17.046;2023-02-24T13:28:59;5.80;;;3.85;;
31716;SDS011;18301;51.076;17.046;2023-02-24T13:34:11;9.60;;;4.38;;
31716;SDS011;18301;51.076;17.046;2023-02-24T13:39:23;6.00;;;3.80;;
31716;SDS011;18301;51.076;17.046;2023-02-24T13:44:31;7.72;;;4.22;;
31716;SDS011;18301;51.076;17.046;2023-02-24T14:05:21;8.40;;;3.90;;
31716;SDS011;18301;51.076;17.046;2023-02-24T14:10:30;8.25;;;3.95;;
31716;SDS011;18301;51.076;17.046;2023-02-24T14:15:34;6.45;;;4.10;;
31716;SDS011;18301;51.076;17.046;2023-02-24T14:20:36;5.35;;;4.05;;
31716;SDS011;18301;51.076;17.046;2023-02-24T14:25:39;7.53;;;3.80;;
31716;SDS011;18301;51.076;17.046;2023-02-24T14:30:41;6.25;;;4.03;;
31716;SDS011;18301;51.076;17.046;2023-02-24T14:35:44;8.25;;;4.45;;
31716;SDS011;18301;51.076;17.046;2023-02-24T14:40:47;6.28;;;4.10;;
31716;SDS011;18301;51.076;17.046;2023-02-24T14:45:50;5.82;;;3.60;;
31716;SDS011;18301;51.076;17.046;2023-02-24T14:50:53;9.73;;;5.15;;
31716;SDS011;18301;51.076;17.046;2023-02-24T14:56:02;11.93;;;4.80;;
31716;SDS011;18301;51.076;17.046;2023-02-24T15:01:13;7.85;;;5.38;;
31716;SDS011;18301;51.076;17.046;2023-02-24T15:06:26;8.48;;;4.80;;
31716;SDS011;18301;51.076;17.046;2023-02-24T15:11:30;7.40;;;5.15;;
31716;SDS011;18301;51.076;17.046;2023-02-24T15:16:36;8.90;;;4.60;;
31716;SDS011;18301;51.076;17.046;2023-02-24T15:21:40;6.97;;;4.30;;
31716;SDS011;18301;51.076;17.046;2023-02-24T15:26:49;9.13;;;5.00;;
31716;SDS011;18301;51.076;17.046;2023-02-24T15:32:02;8.30;;;5.00;;
31716;SDS011;18301;51.076;17.046;2023-02-24T15:37:21;10.70;;;4.75;;
31716;SDS011;18301;51.076;17.046;2023-02-24T15:42:30;10.60;;;5.20;;
31716;SDS011;18301;51.076;17.046;2023-02-24T15:47:41;10.27;;;4.78;;
31716;SDS011;18301;51.076;17.046;2023-02-24T15:52:44;7.63;;;4.47;;
31716;SDS011;18301;51.076;17.046;2023-02-24T15:57:46;10.15;;;5.63;;
31716;SDS011;18301;51.076;17.046;2023-02-24T16:02:57;8.10;;;4.82;;
31716;SDS011;18301;51.076;17.046;2023-02-24T16:07:58;10.35;;;4.93;;
31716;SDS011;18301;51.076;17.046;2023-02-24T16:13:00;9.60;;;5.30;;
31716;SDS011;18301;51.076;17.046;2023-02-24T16:18:02;9.77;;;5.05;;
31716;SDS011;18301;51.076;17.046;2023-02-24T16:23:04;10.02;;;5.13;;
31716;SDS011;18301;51.076;17.046;2023-02-24T16:28:05;7.82;;;4.55;;
31716;SDS011;18301;51.076;17.046;2023-02-24T16:33:11;8.13;;;4.65;;
31716;SDS011;18301;51.076;17.046;2023-02-24T16:38:16;8.75;;;4.90;;
31716;SDS011;18301;51.076;17.046;2023-02-24T16:43:18;6.47;;;4.18;;
31716;SDS011;18301;51.076;17.046;2023-02-24T16:48:23;7.55;;;4.28;;
31716;SDS011;18301;51.076;17.046;2023-02-24T16:53:26;8.48;;;4.50;;
31716;SDS011;18301;51.076;17.046;2023-02-24T16:58:28;10.63;;;4.63;;
31716;SDS011;18301;51.076;17.046;2023-02-24T17:03:48;9.75;;;4.70;;
31716;SDS011;18301;51.076;17.046;2023-02-24T17:08:51;10.23;;;4.80;;
31716;SDS011;18301;51.076;17.046;2023-02-24T17:13:53;8.57;;;4.72;;
31716;SDS011;18301;51.076;17.046;2023-02-24T17:18:55;9.80;;;4.97;;
31716;SDS011;18301;51.076;17.046;2023-02-24T17:23:56;9.40;;;5.13;;
31716;SDS011;18301;51.076;17.046;2023-02-24T17:28:57;8.52;;;5.32;;
31716;SDS011;18301;51.076;17.046;2023-02-24T17:33:59;10.43;;;4.90;;
31716;SDS011;18301;51.076;17.046;2023-02-24T17:39:02;11.10;;;5.57;;
31716;SDS011;18301;51.076;17.046;2023-02-24T17:44:03;10.30;;;5.90;;
31716;SDS011;18301;51.076;17.046;2023-02-24T17:49:05;11.70;;;6.95;;
31716;SDS011;18301;51.076;17.046;2023-02-24T17:54:06;13.45;;;7.00;;
31716;SDS011;18301;51.076;17.046;2023-02-24T17:59:08;12.88;;;6.97;;
31716;SDS011;18301;51.076;17.046;2023-02-24T18:04:10;14.02;;;7.35;;
31716;SDS011;18301;51.076;17.046;2023-02-24T18:09:14;15.15;;;7.70;;
31716;SDS011;18301;51.076;17.046;2023-02-24T18:14:16;13.85;;;7.40;;
31716;SDS011;18301;51.076;17.046;2023-02-24T18:19:17;12.57;;;7.57;;
31716;SDS011;18301;51.076;17.046;2023-02-24T18:24:19;17.75;;;8.80;;
31716;SDS011;18301;51.076;17.046;2023-02-24T18:29:22;13.18;;;8.20;;
31716;SDS011;18301;51.076;17.046;2023-02-24T18:34:24;19.70;;;9.45;;
31716;SDS011;18301;51.076;17.046;2023-02-24T18:39:26;17.08;;;9.20;;
31716;SDS011;18301;51.076;17.046;2023-02-24T18:44:28;22.38;;;10.50;;
31716;SDS011;18301;51.076;17.046;2023-02-24T18:49:29;19.25;;;10.50;;
31716;SDS011;18301;51.076;17.046;2023-02-24T18:54:31;19.15;;;10.32;;
31716;SDS011;18301;51.076;17.046;2023-02-24T18:59:34;18.05;;;10.27;;
31716;SDS011;18301;51.076;17.046;2023-02-24T19:04:35;22.67;;;11.00;;
31716;SDS011;18301;51.076;17.046;2023-02-24T19:09:37;21.95;;;11.32;;
31716;SDS011;18301;51.076;17.046;2023-02-24T19:14:42;18.23;;;8.88;;
31716;SDS011;18301;51.076;17.046;2023-02-24T19:19:44;14.43;;;7.20;;
31716;SDS011;18301;51.076;17.046;2023-02-24T19:24:46;12.13;;;6.57;;
31716;SDS011;18301;51.076;17.046;2023-02-24T19:29:48;12.20;;;6.60;;
31716;SDS011;18301;51.076;17.046;2023-02-24T19:34:49;9.98;;;5.30;;
31716;SDS011;18301;51.076;17.046;2023-02-24T19:39:51;16.60;;;8.82;;
31716;SDS011;18301;51.076;17.046;2023-02-24T19:44:52;24.30;;;13.20;;
31716;SDS011;18301;51.076;17.046;2023-02-24T19:49:54;30.00;;;14.82;;
31716;SDS011;18301;51.076;17.046;2023-02-24T19:54:55;30.10;;;14.88;;
31716;SDS011;18301;51.076;17.046;2023-02-24T19:59:58;55.80;;;21.13;;
31716;SDS011;18301;51.076;17.046;2023-02-24T20:04:59;33.63;;;14.32;;
31716;SDS011;18301;51.076;17.046;2023-02-24T20:10:01;22.02;;;10.57;;
31716;SDS011;18301;51.076;17.046;2023-02-24T20:15:03;10.80;;;6.22;;
31716;SDS011;18301;51.076;17.046;2023-02-24T20:20:05;16.60;;;10.02;;
31716;SDS011;18301;51.076;17.046;2023-02-24T20:25:07;29.38;;;19.05;;
31716;SDS011;18301;51.076;17.046;2023-02-24T20:30:09;16.92;;;9.75;;
31716;SDS011;18301;51.076;17.046;2023-02-24T20:35:11;16.95;;;10.73;;
31716;SDS011;18301;51.076;17.046;2023-02-24T20:40:13;13.27;;;6.97;;
31716;SDS011;18301;51.076;17.046;2023-02-24T20:45:14;17.33;;;10.18;;
31716;SDS011;18301;51.076;17.046;2023-02-24T20:50:16;13.52;;;8.45;;
31716;SDS011;18301;51.076;17.046;2023-02-24T20:55:18;13.15;;;7.32;;
31716;SDS011;18301;51.076;17.046;2023-02-24T21:00:19;12.75;;;7.40;;
31716;SDS011;18301;51.076;17.046;2023-02-24T21:05:23;14.73;;;7.93;;
31716;SDS011;18301;51.076;17.046;2023-02-24T21:10:28;15.65;;;7.85;;
31716;SDS011;18301;51.076;17.046;2023-02-24T21:15:29;14.80;;;8.48;;
31716;SDS011;18301;51.076;17.046;2023-02-24T21:20:31;17.95;;;9.05;;
31716;SDS011;18301;51.076;17.046;2023-02-24T21:25:32;21.20;;;9.27;;
31716;SDS011;18301;51.076;17.046;2023-02-24T21:30:34;19.08;;;9.30;;
31716;SDS011;18301;51.076;17.046;2023-02-24T21:35:35;20.75;;;10.32;;
31716;SDS011;18301;51.076;17.046;2023-02-24T21:40:37;14.75;;;8.18;;
31716;SDS011;18301;51.076;17.046;2023-02-24T21:45:38;20.15;;;9.10;;
31716;SDS011;18301;51.076;17.046;2023-02-24T21:50:40;15.73;;;8.05;;
31716;SDS011;18301;51.076;17.046;2023-02-24T21:55:41;16.83;;;8.40;;
31716;SDS011;18301;51.076;17.046;2023-02-24T22:00:43;14.10;;;8.20;;
31716;SDS011;18301;51.076;17.046;2023-02-24T22:05:45;12.80;;;7.28;;
31716;SDS011;18301;51.076;17.046;2023-02-24T22:10:56;12.27;;;7.03;;
31716;SDS011;18301;51.076;17.046;2023-02-24T22:16:03;12.45;;;6.70;;
31716;SDS011;18301;51.076;17.046;2023-02-24T22:21:09;12.68;;;6.80;;
31716;SDS011;18301;51.076;17.046;2023-02-24T22:26:13;13.80;;;7.32;;
31716;SDS011;18301;51.076;17.046;2023-02-24T22:31:16;12.30;;;6.95;;
31716;SDS011;18301;51.076;17.046;2023-02-24T22:36:22;15.35;;;7.80;;
31716;SDS011;18301;51.076;17.046;2023-02-24T22:41:29;12.02;;;7.30;;
31716;SDS011;18301;51.076;17.046;2023-02-24T22:46:33;15.82;;;8.30;;
31716;SDS011;18301;51.076;17.046;2023-02-24T22:51:36;13.13;;;6.97;;
31716;SDS011;18301;51.076;17.046;2023-02-24T22:56:38;11.82;;;7.65;;
31716;SDS011;18301;51.076;17.046;2023-02-24T23:01:40;10.00;;;5.40;;
31716;SDS011;18301;51.076;17.046;2023-02-24T23:06:42;19.70;;;9.95;;
31716;SDS011;18301;51.076;17.046;2023-02-24T23:11:44;8.60;;;5.45;;
31716;SDS011;18301;51.076;17.046;2023-02-24T23:16:49;7.10;;;4.45;;
31716;SDS011;18301;51.076;17.046;2023-02-24T23:21:54;10.20;;;6.05;;
31716;SDS011;18301;51.076;17.046;2023-02-24T23:26:57;11.90;;;6.38;;
31716;SDS011;18301;51.076;17.046;2023-02-24T23:31:58;5.13;;;3.33;;
31716;SDS011;18301;51.076;17.046;2023-02-24T23:37:00;6.03;;;3.97;;
31716;SDS011;18301;51.076;17.046;2023-02-24T23:42:01;8.15;;;5.20;;
31716;SDS011;18301;51.076;17.046;2023-02-24T23:47:03;5.28;;;4.03;;
31716;SDS011;18301;51.076;17.046;2023-02-24T23:52:05;3.92;;;3.03;;
31716;SDS011;18301;51.076;17.046;2023-02-24T23:57:06;3.75;;;3.00;;
